sensor_id;sensor_type;location;lat;lon;timestamp;temperature;humidity
76567;DHT22;65428;53.194;6.132;2023-05-10T01:15:31;12.50;99.90
76567;DHT22;65428;53.194;6.132;2023-05-10T02:01:37;12.50;99.90
76567;DHT22;65428;53.194;6.132;2023-05-10T02:04:48;12.90;99.90
76567;DHT22;65428;53.194;6.132;2023-05-10T02:07:51;12.60;99.90
76567;DHT22;65428;53.194;6.132;2023-05-10T02:28:34;12.50;99.90
76567;DHT22;65428;53.194;6.132;2023-05-10T02:31:34;12.40;99.90
76567;DHT22;65428;53.194;6.132;2023-05-10T02:37:58;12.40;99.90
76567;DHT22;65428;53.194;6.132;2023-05-10T02:41:09;12.50;99.90
76567;DHT22;65428;53.194;6.132;2023-05-10T02:43:59;12.50;99.90
76567;DHT22;65428;53.194;6.132;2023-05-10T02:47:28;12.70;99.90
76567;DHT22;65428;53.194;6.132;2023-05-10T03:16:34;12.50;99.90
76567;DHT22;65428;53.194;6.132;2023-05-10T03:31:19;12.30;99.90
76567;DHT22;65428;53.194;6.132;2023-05-10T03:33:57;12.30;99.90
76567;DHT22;65428;53.194;6.132;2023-05-10T03:36:29;12.40;99.90
76567;DHT22;65428;53.194;6.132;2023-05-10T03:43:11;12.30;99.90
76567;DHT22;65428;53.194;6.132;2023-05-10T03:46:06;12.30;99.90
76567;DHT22;65428;53.194;6.132;2023-05-10T04:50:22;12.20;99.90
76567;DHT22;65428;53.194;6.132;2023-05-10T05:05:50;12.30;99.90
76567;DHT22;65428;53.194;6.132;2023-05-10T05:54:16;12.10;99.90
76567;DHT22;65428;53.194;6.132;2023-05-10T06:00:21;12.10;99.90
76567;DHT22;65428;53.194;6.132;2023-05-10T06:07:05;12.20;99.90
76567;DHT22;65428;53.194;6.132;2023-05-10T06:09:37;12.10;99.90
76567;DHT22;65428;53.194;6.132;2023-05-10T06:12:35;12.40;99.90
76567;DHT22;65428;53.194;6.132;2023-05-10T08:06:59;13.00;99.90
76567;DHT22;65428;53.194;6.132;2023-05-10T08:15:00;13.10;99.90
76567;DHT22;65428;53.194;6.132;2023-05-10T08:17:54;13.10;99.90
76567;DHT22;65428;53.194;6.132;2023-05-10T08:20:32;13.40;99.90
76567;DHT22;65428;53.194;6.132;2023-05-10T08:22:58;13.20;99.90
76567;DHT22;65428;53.194;6.132;2023-05-10T08:25:26;13.10;99.90
76567;DHT22;65428;53.194;6.132;2023-05-10T08:27:58;13.60;99.90
76567;DHT22;65428;53.194;6.132;2023-05-10T08:34:08;13.50;99.90
76567;DHT22;65428;53.194;6.132;2023-05-10T08:36:33;13.60;99.90
76567;DHT22;65428;53.194;6.132;2023-05-10T08:39:10;13.80;99.90
76567;DHT22;65428;53.194;6.132;2023-05-10T08:41:39;13.90;99.90
76567;DHT22;65428;53.194;6.132;2023-05-10T08:44:08;14.10;99.90
76567;DHT22;65428;53.194;6.132;2023-05-10T08:46:46;13.90;99.90
76567;DHT22;65428;53.194;6.132;2023-05-10T08:49:16;13.90;99.90
76567;DHT22;65428;53.194;6.132;2023-05-10T08:51:52;14.30;99.90
76567;DHT22;65428;53.194;6.132;2023-05-10T08:54:21;13.90;99.90
76567;DHT22;65428;53.194;6.132;2023-05-10T08:56:47;14.20;99.90
76567;DHT22;65428;53.194;6.132;2023-05-10T08:59:12;14.20;99.90
76567;DHT22;65428;53.194;6.132;2023-05-10T09:01:40;14.50;99.90
76567;DHT22;65428;53.194;6.132;2023-05-10T09:04:07;14.60;99.90
76567;DHT22;65428;53.194;6.132;2023-05-10T09:06:33;14.60;99.90
76567;DHT22;65428;53.194;6.132;2023-05-10T09:09:02;14.60;99.90
76567;DHT22;65428;53.194;6.132;2023-05-10T09:11:31;14.80;99.90
76567;DHT22;65428;53.194;6.132;2023-05-10T09:13:57;14.60;99.90
76567;DHT22;65428;53.194;6.132;2023-05-10T09:16:23;14.60;99.90
76567;DHT22;65428;53.194;6.132;2023-05-10T09:18:49;14.50;99.90
76567;DHT22;65428;53.194;6.132;2023-05-10T09:21:15;14.60;99.90
76567;DHT22;65428;53.194;6.132;2023-05-10T09:23:50;14.70;99.90
76567;DHT22;65428;53.194;6.132;2023-05-10T09:26:16;14.70;99.90
76567;DHT22;65428;53.194;6.132;2023-05-10T09:28:54;15.20;99.90
76567;DHT22;65428;53.194;6.132;2023-05-10T09:31:20;14.90;99.90
76567;DHT22;65428;53.194;6.132;2023-05-10T09:33:48;15.00;99.90
76567;DHT22;65428;53.194;6.132;2023-05-10T09:39:30;14.90;99.90
76567;DHT22;65428;53.194;6.132;2023-05-10T09:42:02;15.40;99.90
76567;DHT22;65428;53.194;6.132;2023-05-10T09:44:29;15.50;99.90
76567;DHT22;65428;53.194;6.132;2023-05-10T09:46:55;15.70;99.90
76567;DHT22;65428;53.194;6.132;2023-05-10T09:49:21;15.90;99.90
76567;DHT22;65428;53.194;6.132;2023-05-10T09:52:06;15.60;99.90
76567;DHT22;65428;53.194;6.132;2023-05-10T09:54:32;15.50;99.90
76567;DHT22;65428;53.194;6.132;2023-05-10T09:56:58;15.90;99.90
76567;DHT22;65428;53.194;6.132;2023-05-10T09:59:25;15.60;99.90
76567;DHT22;65428;53.194;6.132;2023-05-10T10:01:55;15.20;99.90
76567;DHT22;65428;53.194;6.132;2023-05-10T10:04:25;15.50;99.90
76567;DHT22;65428;53.194;6.132;2023-05-10T10:07:04;15.40;99.90
76567;DHT22;65428;53.194;6.132;2023-05-10T10:09:31;15.60;99.90
76567;DHT22;65428;53.194;6.132;2023-05-10T10:11:57;15.40;99.90
76567;DHT22;65428;53.194;6.132;2023-05-10T10:14:23;15.30;99.90
76567;DHT22;65428;53.194;6.132;2023-05-10T10:16:52;15.60;99.90
76567;DHT22;65428;53.194;6.132;2023-05-10T10:19:21;15.40;99.90
76567;DHT22;65428;53.194;6.132;2023-05-10T10:21:47;15.70;99.90
76567;DHT22;65428;53.194;6.132;2023-05-10T10:24:21;15.40;99.90
76567;DHT22;65428;53.194;6.132;2023-05-10T10:26:47;15.00;99.90
76567;DHT22;65428;53.194;6.132;2023-05-10T10:32:25;14.90;99.90
76567;DHT22;65428;53.194;6.132;2023-05-10T10:34:56;15.10;99.90
76567;DHT22;65428;53.194;6.132;2023-05-10T10:37:22;15.00;99.90
76567;DHT22;65428;53.194;6.132;2023-05-10T10:39:49;15.10;99.90
76567;DHT22;65428;53.194;6.132;2023-05-10T10:42:44;15.10;99.90
76567;DHT22;65428;53.194;6.132;2023-05-10T10:45:12;15.20;99.90
76567;DHT22;65428;53.194;6.132;2023-05-10T10:47:38;15.50;99.90
76567;DHT22;65428;53.194;6.132;2023-05-10T10:50:06;15.30;99.90
76567;DHT22;65428;53.194;6.132;2023-05-10T10:52:45;15.10;99.90
76567;DHT22;65428;53.194;6.132;2023-05-10T10:55:18;15.00;99.90
76567;DHT22;65428;53.194;6.132;2023-05-10T10:57:56;15.20;99.90
76567;DHT22;65428;53.194;6.132;2023-05-10T11:00:30;15.20;99.90
76567;DHT22;65428;53.194;6.132;2023-05-10T11:08:09;15.60;99.90
76567;DHT22;65428;53.194;6.132;2023-05-10T11:10:35;15.50;99.90
76567;DHT22;65428;53.194;6.132;2023-05-10T11:13:02;15.70;99.90
76567;DHT22;65428;53.194;6.132;2023-05-10T11:15:35;15.40;99.90
76567;DHT22;65428;53.194;6.132;2023-05-10T11:18:19;15.60;99.90
76567;DHT22;65428;53.194;6.132;2023-05-10T11:20:50;15.60;99.90
76567;DHT22;65428;53.194;6.132;2023-05-10T11:23:19;15.40;99.90
76567;DHT22;65428;53.194;6.132;2023-05-10T11:25:48;15.50;99.90
76567;DHT22;65428;53.194;6.132;2023-05-10T11:28:17;15.70;99.90
76567;DHT22;65428;53.194;6.132;2023-05-10T11:30:53;15.70;99.90
76567;DHT22;65428;53.194;6.132;2023-05-10T11:33:50;15.70;99.90
76567;DHT22;65428;53.194;6.132;2023-05-10T11:39:31;15.50;99.90
76567;DHT22;65428;53.194;6.132;2023-05-10T11:42:01;15.50;99.90
76567;DHT22;65428;53.194;6.132;2023-05-10T11:44:35;15.70;99.90
76567;DHT22;65428;53.194;6.132;2023-05-10T11:47:01;15.60;99.90
76567;DHT22;65428;53.194;6.132;2023-05-10T11:49:45;15.80;99.90
76567;DHT22;65428;53.194;6.132;2023-05-10T11:52:35;16.00;99.90
76567;DHT22;65428;53.194;6.132;2023-05-10T11:55:06;15.80;99.90
76567;DHT22;65428;53.194;6.132;2023-05-10T11:57:34;15.90;99.90
76567;DHT22;65428;53.194;6.132;2023-05-10T12:00:42;16.00;99.90
76567;DHT22;65428;53.194;6.132;2023-05-10T12:03:34;15.90;99.90
76567;DHT22;65428;53.194;6.132;2023-05-10T12:06:37;16.40;99.90
76567;DHT22;65428;53.194;6.132;2023-05-10T12:09:08;15.90;99.90
76567;DHT22;65428;53.194;6.132;2023-05-10T12:14:56;15.70;99.90
76567;DHT22;65428;53.194;6.132;2023-05-10T12:17:48;15.60;99.90
76567;DHT22;65428;53.194;6.132;2023-05-10T12:20:29;15.80;99.90
76567;DHT22;65428;53.194;6.132;2023-05-10T12:22:58;15.90;99.90
76567;DHT22;65428;53.194;6.132;2023-05-10T12:25:35;15.90;99.90
76567;DHT22;65428;53.194;6.132;2023-05-10T12:28:04;15.70;99.90
76567;DHT22;65428;53.194;6.132;2023-05-10T12:30:32;15.70;99.90
76567;DHT22;65428;53.194;6.132;2023-05-10T12:33:02;16.30;99.90
76567;DHT22;65428;53.194;6.132;2023-05-10T12:35:46;15.90;99.90
76567;DHT22;65428;53.194;6.132;2023-05-10T12:38:35;15.80;99.90
76567;DHT22;65428;53.194;6.132;2023-05-10T12:41:07;15.90;99.90
76567;DHT22;65428;53.194;6.132;2023-05-10T12:43:34;15.90;99.90
76567;DHT22;65428;53.194;6.132;2023-05-10T12:46:34;15.80;99.90
76567;DHT22;65428;53.194;6.132;2023-05-10T12:52:29;15.70;99.90
76567;DHT22;65428;53.194;6.132;2023-05-10T12:55:00;15.60;99.90
76567;DHT22;65428;53.194;6.132;2023-05-10T12:57:34;15.70;99.90
76567;DHT22;65428;53.194;6.132;2023-05-10T13:00:02;15.80;99.90
76567;DHT22;65428;53.194;6.132;2023-05-10T13:05:55;16.30;99.90
76567;DHT22;65428;53.194;6.132;2023-05-10T13:12:27;16.30;99.90
76567;DHT22;65428;53.194;6.132;2023-05-10T14:47:57;18.00;99.90
76567;DHT22;65428;53.194;6.132;2023-05-10T15:17:48;16.80;99.90
76567;DHT22;65428;53.194;6.132;2023-05-10T15:20:49;16.80;99.90
76567;DHT22;65428;53.194;6.132;2023-05-10T15:23:32;17.00;99.90
76567;DHT22;65428;53.194;6.132;2023-05-10T15:26:04;16.50;99.90
76567;DHT22;65428;53.194;6.132;2023-05-10T15:29:02;16.40;99.90
76567;DHT22;65428;53.194;6.132;2023-05-10T15:32:54;16.40;99.90
76567;DHT22;65428;53.194;6.132;2023-05-10T15:35:47;16.20;99.90
76567;DHT22;65428;53.194;6.132;2023-05-10T15:41:46;16.10;99.90
76567;DHT22;65428;53.194;6.132;2023-05-10T15:44:38;16.70;99.90
76567;DHT22;65428;53.194;6.132;2023-05-10T15:47:06;16.00;99.90
76567;DHT22;65428;53.194;6.132;2023-05-10T15:53:22;15.50;99.90
76567;DHT22;65428;53.194;6.132;2023-05-10T15:55:51;15.60;99.90
76567;DHT22;65428;53.194;6.132;2023-05-10T16:04:35;15.50;99.90
76567;DHT22;65428;53.194;6.132;2023-05-10T16:07:09;15.30;99.90
76567;DHT22;65428;53.194;6.132;2023-05-10T16:09:40;15.70;99.90
76567;DHT22;65428;53.194;6.132;2023-05-10T16:12:29;15.50;99.90
76567;DHT22;65428;53.194;6.132;2023-05-10T16:14:55;15.50;99.90
76567;DHT22;65428;53.194;6.132;2023-05-10T16:17:21;15.60;99.90
76567;DHT22;65428;53.194;6.132;2023-05-10T16:19:52;15.80;99.90
76567;DHT22;65428;53.194;6.132;2023-05-10T16:22:18;15.50;99.90
76567;DHT22;65428;53.194;6.132;2023-05-10T16:27:48;15.50;99.90
76567;DHT22;65428;53.194;6.132;2023-05-10T16:33:20;15.60;99.90
76567;DHT22;65428;53.194;6.132;2023-05-10T16:35:55;16.00;99.90
76567;DHT22;65428;53.194;6.132;2023-05-10T16:38:20;15.60;99.90
76567;DHT22;65428;53.194;6.132;2023-05-10T16:41:08;16.00;99.90
76567;DHT22;65428;53.194;6.132;2023-05-10T16:47:39;15.90;99.90
76567;DHT22;65428;53.194;6.132;2023-05-10T16:50:06;15.80;99.90
76567;DHT22;65428;53.194;6.132;2023-05-10T16:52:43;16.00;99.90
76567;DHT22;65428;53.194;6.132;2023-05-10T16:55:09;16.10;99.90
76567;DHT22;65428;53.194;6.132;2023-05-10T16:57:38;16.40;99.90
76567;DHT22;65428;53.194;6.132;2023-05-10T17:00:35;16.20;99.90
76567;DHT22;65428;53.194;6.132;2023-05-10T17:03:24;16.10;99.90
76567;DHT22;65428;53.194;6.132;2023-05-10T17:06:12;16.40;99.90
76567;DHT22;65428;53.194;6.132;2023-05-10T17:08:47;16.60;99.90
76567;DHT22;65428;53.194;6.132;2023-05-10T17:11:33;16.20;99.90
76567;DHT22;65428;53.194;6.132;2023-05-10T17:14:29;16.30;99.90
76567;DHT22;65428;53.194;6.132;2023-05-10T17:17:39;16.00;99.90
76567;DHT22;65428;53.194;6.132;2023-05-10T17:20:31;16.00;99.90
76567;DHT22;65428;53.194;6.132;2023-05-10T17:23:07;16.10;99.90
76567;DHT22;65428;53.194;6.132;2023-05-10T17:25:34;16.00;99.90
76567;DHT22;65428;53.194;6.132;2023-05-10T17:28:00;15.80;99.90
76567;DHT22;65428;53.194;6.132;2023-05-10T17:30:25;15.80;99.90
76567;DHT22;65428;53.194;6.132;2023-05-10T17:33:16;15.70;99.90
76567;DHT22;65428;53.194;6.132;2023-05-10T17:36:09;15.20;99.90
76567;DHT22;65428;53.194;6.132;2023-05-10T17:45:11;15.00;99.90
76567;DHT22;65428;53.194;6.132;2023-05-10T17:48:00;14.80;99.90
76567;DHT22;65428;53.194;6.132;2023-05-10T17:50:26;15.00;99.90
76567;DHT22;65428;53.194;6.132;2023-05-10T17:52:51;14.60;99.90
76567;DHT22;65428;53.194;6.132;2023-05-10T17:55:20;14.80;99.90
76567;DHT22;65428;53.194;6.132;2023-05-10T17:57:46;14.80;99.90
76567;DHT22;65428;53.194;6.132;2023-05-10T18:00:38;14.70;99.90
76567;DHT22;65428;53.194;6.132;2023-05-10T18:03:25;14.50;99.90
76567;DHT22;65428;53.194;6.132;2023-05-10T18:05:51;14.50;99.90
76567;DHT22;65428;53.194;6.132;2023-05-10T18:08:55;14.40;99.90
76567;DHT22;65428;53.194;6.132;2023-05-10T18:15:44;14.30;99.90
76567;DHT22;65428;53.194;6.132;2023-05-10T18:18:23;14.00;99.90
76567;DHT22;65428;53.194;6.132;2023-05-10T18:20:49;14.40;99.90
76567;DHT22;65428;53.194;6.132;2023-05-10T18:23:23;13.80;99.90
76567;DHT22;65428;53.194;6.132;2023-05-10T18:25:50;14.20;99.90
76567;DHT22;65428;53.194;6.132;2023-05-10T18:28:16;14.10;99.90
76567;DHT22;65428;53.194;6.132;2023-05-10T18:31:00;14.10;99.90
76567;DHT22;65428;53.194;6.132;2023-05-10T18:33:25;14.10;99.90
76567;DHT22;65428;53.194;6.132;2023-05-10T18:36:02;14.20;99.90
76567;DHT22;65428;53.194;6.132;2023-05-10T18:38:50;14.10;99.90
76567;DHT22;65428;53.194;6.132;2023-05-10T18:41:29;14.00;99.90
76567;DHT22;65428;53.194;6.132;2023-05-10T18:43:57;14.90;99.90
76567;DHT22;65428;53.194;6.132;2023-05-10T18:46:30;14.20;99.90
76567;DHT22;65428;53.194;6.132;2023-05-10T18:48:58;14.10;99.90
76567;DHT22;65428;53.194;6.132;2023-05-10T18:51:24;14.00;99.90
76567;DHT22;65428;53.194;6.132;2023-05-10T18:53:50;14.00;99.90
76567;DHT22;65428;53.194;6.132;2023-05-10T18:56:39;13.90;99.90
76567;DHT22;65428;53.194;6.132;2023-05-10T19:02:30;13.90;99.90
76567;DHT22;65428;53.194;6.132;2023-05-10T19:05:40;13.90;99.90
76567;DHT22;65428;53.194;6.132;2023-05-10T19:08:08;14.10;99.90
76567;DHT22;65428;53.194;6.132;2023-05-10T19:10:34;13.80;99.90
76567;DHT22;65428;53.194;6.132;2023-05-10T19:13:20;14.20;99.90
76567;DHT22;65428;53.194;6.132;2023-05-10T19:15:46;13.90;99.90
76567;DHT22;65428;53.194;6.132;2023-05-10T19:18:11;13.70;99.90
76567;DHT22;65428;53.194;6.132;2023-05-10T19:20:39;13.50;99.90
76567;DHT22;65428;53.194;6.132;2023-05-10T19:23:05;13.50;99.90
76567;DHT22;65428;53.194;6.132;2023-05-10T19:25:31;13.50;99.90
76567;DHT22;65428;53.194;6.132;2023-05-10T19:27:59;13.50;99.90
76567;DHT22;65428;53.194;6.132;2023-05-10T19:30:25;13.40;99.90
76567;DHT22;65428;53.194;6.132;2023-05-10T19:32:51;13.30;99.90
76567;DHT22;65428;53.194;6.132;2023-05-10T19:35:16;13.90;99.90
76567;DHT22;65428;53.194;6.132;2023-05-10T19:37:42;13.40;99.90
76567;DHT22;65428;53.194;6.132;2023-05-10T19:40:14;13.70;99.90
76567;DHT22;65428;53.194;6.132;2023-05-10T19:42:41;13.40;99.90
76567;DHT22;65428;53.194;6.132;2023-05-10T19:45:08;14.00;99.90
76567;DHT22;65428;53.194;6.132;2023-05-10T19:47:34;13.30;99.90
76567;DHT22;65428;53.194;6.132;2023-05-10T19:50:01;13.50;99.90
76567;DHT22;65428;53.194;6.132;2023-05-10T19:52:27;13.20;99.90
76567;DHT22;65428;53.194;6.132;2023-05-10T19:54:52;13.40;99.90
76567;DHT22;65428;53.194;6.132;2023-05-10T19:57:19;13.10;99.90
76567;DHT22;65428;53.194;6.132;2023-05-10T19:59:45;12.90;99.90
76567;DHT22;65428;53.194;6.132;2023-05-10T20:02:10;12.90;99.90
76567;DHT22;65428;53.194;6.132;2023-05-10T20:04:36;13.20;99.90
76567;DHT22;65428;53.194;6.132;2023-05-10T20:07:02;13.40;99.90
76567;DHT22;65428;53.194;6.132;2023-05-10T20:09:27;13.20;99.90
76567;DHT22;65428;53.194;6.132;2023-05-10T20:11:53;13.30;99.90
76567;DHT22;65428;53.194;6.132;2023-05-10T20:14:19;13.00;99.90
76567;DHT22;65428;53.194;6.132;2023-05-10T20:16:44;13.20;99.90
76567;DHT22;65428;53.194;6.132;2023-05-10T20:19:10;12.90;99.90
76567;DHT22;65428;53.194;6.132;2023-05-10T20:21:36;13.00;99.90
76567;DHT22;65428;53.194;6.132;2023-05-10T20:24:02;13.00;99.90
76567;DHT22;65428;53.194;6.132;2023-05-10T20:26:28;12.90;99.90
76567;DHT22;65428;53.194;6.132;2023-05-10T20:28:53;13.10;99.90
76567;DHT22;65428;53.194;6.132;2023-05-10T20:31:19;12.90;99.90
76567;DHT22;65428;53.194;6.132;2023-05-10T20:33:45;13.00;99.90
76567;DHT22;65428;53.194;6.132;2023-05-10T20:36:10;13.00;99.90
76567;DHT22;65428;53.194;6.132;2023-05-10T20:38:36;13.10;99.90
76567;DHT22;65428;53.194;6.132;2023-05-10T20:41:02;13.20;99.90
76567;DHT22;65428;53.194;6.132;2023-05-10T20:43:28;12.80;99.90
76567;DHT22;65428;53.194;6.132;2023-05-10T20:45:54;12.70;99.90
76567;DHT22;65428;53.194;6.132;2023-05-10T20:48:19;12.90;99.90
76567;DHT22;65428;53.194;6.132;2023-05-10T20:50:45;12.80;99.90
76567;DHT22;65428;53.194;6.132;2023-05-10T20:53:11;12.60;99.90
76567;DHT22;65428;53.194;6.132;2023-05-10T20:55:39;13.40;99.90
76567;DHT22;65428;53.194;6.132;2023-05-10T20:58:04;13.20;99.90
76567;DHT22;65428;53.194;6.132;2023-05-10T21:00:30;12.40;99.90
76567;DHT22;65428;53.194;6.132;2023-05-10T21:02:56;13.10;99.90
76567;DHT22;65428;53.194;6.132;2023-05-10T21:05:22;12.50;99.90
76567;DHT22;65428;53.194;6.132;2023-05-10T21:07:48;12.40;99.90
76567;DHT22;65428;53.194;6.132;2023-05-10T21:10:13;12.30;99.90
76567;DHT22;65428;53.194;6.132;2023-05-10T21:12:39;12.20;99.90
76567;DHT22;65428;53.194;6.132;2023-05-10T21:15:06;12.50;99.90
76567;DHT22;65428;53.194;6.132;2023-05-10T21:17:32;12.10;99.90
76567;DHT22;65428;53.194;6.132;2023-05-10T21:19:57;12.30;99.90
76567;DHT22;65428;53.194;6.132;2023-05-10T21:22:23;12.40;99.90
76567;DHT22;65428;53.194;6.132;2023-05-10T21:24:49;12.50;99.90
76567;DHT22;65428;53.194;6.132;2023-05-10T21:27:14;12.60;99.90
76567;DHT22;65428;53.194;6.132;2023-05-10T21:29:40;12.60;99.90
76567;DHT22;65428;53.194;6.132;2023-05-10T21:32:06;12.40;99.90
76567;DHT22;65428;53.194;6.132;2023-05-10T21:34:34;12.40;99.90
76567;DHT22;65428;53.194;6.132;2023-05-10T21:37:00;12.30;99.90
76567;DHT22;65428;53.194;6.132;2023-05-10T21:39:25;12.30;99.90
76567;DHT22;65428;53.194;6.132;2023-05-10T21:41:51;12.70;99.90
76567;DHT22;65428;53.194;6.132;2023-05-10T21:44:17;12.60;99.90
76567;DHT22;65428;53.194;6.132;2023-05-10T21:46:42;12.50;99.90
76567;DHT22;65428;53.194;6.132;2023-05-10T21:49:08;12.30;99.90
76567;DHT22;65428;53.194;6.132;2023-05-10T21:51:34;12.30;99.90
76567;DHT22;65428;53.194;6.132;2023-05-10T21:54:00;12.50;99.90
76567;DHT22;65428;53.194;6.132;2023-05-10T21:56:26;12.90;99.90
76567;DHT22;65428;53.194;6.132;2023-05-10T21:58:51;12.70;99.90
76567;DHT22;65428;53.194;6.132;2023-05-10T22:01:17;12.30;99.90
76567;DHT22;65428;53.194;6.132;2023-05-10T22:03:43;12.50;99.90
76567;DHT22;65428;53.194;6.132;2023-05-10T22:06:09;12.30;99.90
76567;DHT22;65428;53.194;6.132;2023-05-10T22:08:34;12.50;99.90
76567;DHT22;65428;53.194;6.132;2023-05-10T22:11:00;12.40;99.90
76567;DHT22;65428;53.194;6.132;2023-05-10T22:13:26;12.50;99.90
76567;DHT22;65428;53.194;6.132;2023-05-10T22:15:52;12.40;99.90
76567;DHT22;65428;53.194;6.132;2023-05-10T22:18:17;12.20;99.90
76567;DHT22;65428;53.194;6.132;2023-05-10T22:20:44;12.50;99.90
76567;DHT22;65428;53.194;6.132;2023-05-10T22:23:11;12.20;99.90
76567;DHT22;65428;53.194;6.132;2023-05-10T22:25:36;12.00;99.90
76567;DHT22;65428;53.194;6.132;2023-05-10T22:28:02;12.50;99.90
76567;DHT22;65428;53.194;6.132;2023-05-10T22:30:28;12.00;99.90
76567;DHT22;65428;53.194;6.132;2023-05-10T22:32:53;12.00;99.90
76567;DHT22;65428;53.194;6.132;2023-05-10T22:35:19;11.90;99.90
76567;DHT22;65428;53.194;6.132;2023-05-10T22:37:45;12.50;99.90
76567;DHT22;65428;53.194;6.132;2023-05-10T22:40:11;12.10;99.90
76567;DHT22;65428;53.194;6.132;2023-05-10T22:42:37;12.00;99.90
76567;DHT22;65428;53.194;6.132;2023-05-10T22:45:03;12.00;99.90
76567;DHT22;65428;53.194;6.132;2023-05-10T22:47:29;12.00;99.90
76567;DHT22;65428;53.194;6.132;2023-05-10T22:49:55;12.50;99.90
76567;DHT22;65428;53.194;6.132;2023-05-10T22:52:22;12.30;99.90
76567;DHT22;65428;53.194;6.132;2023-05-10T22:54:48;12.00;99.90
76567;DHT22;65428;53.194;6.132;2023-05-10T22:57:14;12.00;99.90
76567;DHT22;65428;53.194;6.132;2023-05-10T22:59:41;12.00;99.90
76567;DHT22;65428;53.194;6.132;2023-05-10T23:02:07;12.30;99.90
76567;DHT22;65428;53.194;6.132;2023-05-10T23:04:32;12.10;99.90
76567;DHT22;65428;53.194;6.132;2023-05-10T23:06:58;12.20;99.90
76567;DHT22;65428;53.194;6.132;2023-05-10T23:09:24;12.20;99.90
76567;DHT22;65428;53.194;6.132;2023-05-10T23:11:49;12.20;99.90
76567;DHT22;65428;53.194;6.132;2023-05-10T23:14:15;12.10;99.90
76567;DHT22;65428;53.194;6.132;2023-05-10T23:16:41;12.00;99.90
76567;DHT22;65428;53.194;6.132;2023-05-10T23:19:07;12.30;99.90
76567;DHT22;65428;53.194;6.132;2023-05-10T23:21:32;12.30;99.90
76567;DHT22;65428;53.194;6.132;2023-05-10T23:23:58;12.20;99.90
76567;DHT22;65428;53.194;6.132;2023-05-10T23:26:24;11.90;99.90
76567;DHT22;65428;53.194;6.132;2023-05-10T23:28:53;12.40;99.90
76567;DHT22;65428;53.194;6.132;2023-05-10T23:31:18;12.10;99.90
76567;DHT22;65428;53.194;6.132;2023-05-10T23:33:44;12.20;99.90
76567;DHT22;65428;53.194;6.132;2023-05-10T23:36:09;12.20;99.90
76567;DHT22;65428;53.194;6.132;2023-05-10T23:38:37;11.40;99.90
76567;DHT22;65428;53.194;6.132;2023-05-10T23:41:03;12.10;99.90
76567;DHT22;65428;53.194;6.132;2023-05-10T23:43:28;11.90;99.90
76567;DHT22;65428;53.194;6.132;2023-05-10T23:45:55;11.90;99.90
76567;DHT22;65428;53.194;6.132;2023-05-10T23:48:21;11.80;99.90
76567;DHT22;65428;53.194;6.132;2023-05-10T23:50:47;12.20;99.90
76567;DHT22;65428;53.194;6.132;2023-05-10T23:53:12;12.10;99.90
76567;DHT22;65428;53.194;6.132;2023-05-10T23:55:38;11.90;99.90
76567;DHT22;65428;53.194;6.132;2023-05-10T23:58:04;12.10;99.90
